Time;durP1;ratioP1;P1;durP2;ratioP2;P2;SDS_P1;SDS_P2;PMS_P1;PMS_P2;Temp;Humidity;BMP_temperature;BMP_pressure;BME280_temperature;BME280_humidity;BME280_pressure;Samples;Min_cycle;Max_cycle;Signal;HPM_P1;HPM_P2
2023/12/10 06:02:09;;;;;;;14.52;2.88;;;8.40;76.30;;;;;;4073362;23;20143;-77
2023/12/10 06:04:10;;;;;;;15.57;3.17;;;8.40;76.40;;;;;;4052762;29;20213;-78
2023/12/10 06:06:13;;;;;;;12.43;2.30;;;8.40;76.20;;;;;;4052736;29;20100;-77
2023/12/10 06:08:14;;;;;;;15.02;3.05;;;8.40;76.90;;;;;;4052758;29;20087;-77
2023/12/10 06:10:16;;;;;;;17.77;3.03;;;8.40;76.10;;;;;;4065375;29;20048;-75
2023/12/10 06:12:18;;;;;;;15.70;2.53;;;8.40;75.90;;;;;;4067608;29;20052;-78
2023/12/10 06:14:20;;;;;;;16.08;3.15;;;8.40;75.90;;;;;;4068275;29;20386;-74
2023/12/10 06:16:22;;;;;;;14.70;2.55;;;8.40;75.90;;;;;;4068467;29;20401;-75
2023/12/10 06:18:25;;;;;;;13.63;2.20;;;8.40;75.80;;;;;;4068056;29;20044;-77
2023/12/10 06:20:27;;;;;;;16.83;3.25;;;8.40;75.60;;;;;;4068398;29;20390;-77
2023/12/10 06:22:28;;;;;;;16.05;2.83;;;8.40;75.60;;;;;;4068414;29;20048;-77
2023/12/10 06:24:30;;;;;;;13.05;2.75;;;8.40;75.80;;;;;;4069578;29;20099;-78
2023/12/10 06:26:32;;;;;;;13.15;2.20;;;8.40;75.60;;;;;;4071170;29;20453;-78
2023/12/10 06:28:34;;;;;;;17.60;2.65;;;8.40;75.50;;;;;;4070942;29;20048;-79
2023/12/10 06:30:36;;;;;;;15.23;2.53;;;8.40;75.30;;;;;;4070920;29;20052;-77
2023/12/10 06:32:37;;;;;;;13.40;2.70;;;8.40;75.50;;;;;;4070887;29;20056;-77
2023/12/10 06:34:40;;;;;;;14.25;2.60;;;8.40;75.20;;;;;;4071022;29;20044;-78
2023/12/10 06:36:42;;;;;;;13.55;2.75;;;8.40;75.30;;;;;;4070632;29;20115;-79
2023/12/10 06:38:44;;;;;;;14.18;2.83;;;8.40;75.40;;;;;;4070395;29;20462;-78
2023/12/10 06:40:45;;;;;;;14.95;2.58;;;8.40;75.40;;;;;;4070874;29;20044;-80
2023/12/10 06:42:46;;;;;;;14.10;2.88;;;8.40;75.30;;;;;;4070897;29;20052;-78
2023/12/10 06:44:48;;;;;;;16.40;3.15;;;8.40;75.80;;;;;;4070652;29;20439;-79
2023/12/10 06:46:50;;;;;;;16.13;3.20;;;8.30;75.90;;;;;;4065915;29;20076;-79
2023/12/10 06:48:52;;;;;;;16.17;2.88;;;8.30;75.80;;;;;;4077718;29;20055;-76
2023/12/10 06:50:55;;;;;;;15.48;3.08;;;8.30;75.80;;;;;;4070249;29;20052;-78
2023/12/10 06:52:56;;;;;;;14.60;3.00;;;8.30;75.70;;;;;;4069684;29;20100;-77
2023/12/10 06:54:58;;;;;;;12.02;2.63;;;8.30;75.90;;;;;;4069125;29;20060;-76
2023/12/10 06:57:00;;;;;;;14.32;2.95;;;8.30;75.90;;;;;;4070262;29;20052;-79
2023/12/10 06:59:01;;;;;;;14.00;2.80;;;8.30;75.90;;;;;;4070610;29;20103;-76
2023/12/10 07:01:03;;;;;;;12.40;2.40;;;8.30;75.90;;;;;;4072272;29;20064;-77
2023/12/10 07:03:05;;;;;;;21.77;3.20;;;8.30;76.10;;;;;;4068202;29;20053;-76
2023/12/10 07:05:08;;;;;;;15.75;2.45;;;8.30;75.90;;;;;;4063312;29;20040;-75
2023/12/10 07:07:11;;;;;;;15.27;2.55;;;8.30;75.70;;;;;;4068125;29;20052;-75
2023/12/10 07:09:13;;;;;;;18.00;2.80;;;8.30;75.60;;;;;;4069349;29;20075;-78
2023/12/10 07:11:15;;;;;;;12.02;2.60;;;8.30;75.50;;;;;;4068504;29;20131;-77
2023/12/10 07:13:16;;;;;;;17.13;3.03;;;8.30;75.30;;;;;;4076263;29;20048;-76
2023/12/10 07:15:18;;;;;;;15.23;2.70;;;8.30;75.30;;;;;;4086398;29;20055;-77
2023/12/10 07:17:20;;;;;;;16.35;3.00;;;8.30;75.20;;;;;;4084962;29;20063;-78
2023/12/10 07:19:22;;;;;;;13.40;2.30;;;8.30;75.10;;;;;;4085827;29;20052;-80
2023/12/10 07:21:24;;;;;;;14.10;2.33;;;8.30;75.00;;;;;;4085619;29;20048;-77
2023/12/10 07:23:27;;;;;;;19.10;2.63;;;8.30;74.80;;;;;;4086155;29;20044;-76
2023/12/10 07:25:29;;;;;;;12.95;2.53;;;8.40;75.00;;;;;;4085944;29;20107;-76
2023/12/10 07:27:32;;;;;;;16.75;2.85;;;8.40;74.80;;;;;;4085031;29;20060;-78
2023/12/10 07:29:32;;;;;;;13.60;2.67;;;8.40;74.70;;;;;;4085736;29;20135;-79
2023/12/10 07:31:34;;;;;;;13.02;2.55;;;8.40;74.70;;;;;;4085659;29;20090;-77
2023/12/10 07:33:36;;;;;;;11.73;2.53;;;8.40;74.70;;;;;;4085322;29;20047;-76
2023/12/10 07:35:38;;;;;;;13.13;2.67;;;8.40;74.30;;;;;;4084755;29;20098;-77
2023/12/10 07:37:40;;;;;;;15.18;2.63;;;8.40;74.20;;;;;;4085477;29;20048;-77
2023/12/10 07:39:43;;;;;;;11.75;2.45;;;8.40;74.20;;;;;;4084247;29;20541;-79
2023/12/10 07:41:45;;;;;;;15.07;2.50;;;8.40;74.30;;;;;;4085472;29;20039;-80
2023/12/10 07:43:48;;;;;;;11.15;2.38;;;8.40;74.00;;;;;;4071880;29;20111;-80
2023/12/10 07:45:48;;;;;;;15.07;2.80;;;8.40;73.90;;;;;;4084623;29;20139;-80
2023/12/10 07:47:50;;;;;;;17.10;3.17;;;8.40;73.80;;;;;;4084626;29;20052;-79
2023/12/10 07:49:52;;;;;;;11.50;2.35;;;8.40;73.70;;;;;;4073216;29;20047;-79
2023/12/10 07:51:54;;;;;;;13.88;2.70;;;8.40;73.50;;;;;;4069789;29;20405;-77
2023/12/10 07:53:56;;;;;;;14.23;2.65;;;8.40;73.10;;;;;;4082974;29;20052;-79
2023/12/10 07:55:59;;;;;;;14.70;2.67;;;8.40;73.30;;;;;;4072556;29;20044;-80
2023/12/10 07:58:01;;;;;;;15.57;2.88;;;8.40;73.30;;;;;;4070150;29;20048;-78
2023/12/10 08:00:05;;;;;;;12.00;2.47;;;8.40;73.40;;;;;;4085177;29;20056;-79
2023/12/10 08:02:07;;;;;;;15.52;2.90;;;8.40;73.30;;;;;;4084777;29;20118;-78
2023/12/10 08:04:09;;;;;;;14.55;2.63;;;8.40;73.40;;;;;;4073837;29;20048;-77
2023/12/10 08:06:11;;;;;;;12.15;2.35;;;8.40;73.40;;;;;;4083187;29;20485;-77
2023/12/10 08:08:13;;;;;;;14.05;2.55;;;8.40;72.90;;;;;;4087520;29;20110;-76
2023/12/10 08:10:15;;;;;;;11.18;2.30;;;8.50;73.30;;;;;;4085103;29;20094;-78
2023/12/10 08:12:18;;;;;;;18.10;2.80;;;8.50;73.00;;;;;;4085679;29;20512;-77
2023/12/10 08:14:20;;;;;;;14.45;2.63;;;8.50;73.20;;;;;;4085584;29;20394;-80
2023/12/10 08:16:21;;;;;;;12.93;2.78;;;8.40;73.10;;;;;;4086083;29;20130;-77
2023/12/10 08:18:23;;;;;;;16.00;2.78;;;8.50;73.20;;;;;;4085223;29;20086;-77
2023/12/10 08:20:25;;;;;;;14.32;2.65;;;8.50;72.90;;;;;;4082706;29;20143;-78
2023/12/10 08:22:27;;;;;;;12.88;2.13;;;8.50;72.80;;;;;;4076932;29;20209;-76
2023/12/10 08:24:29;;;;;;;13.43;2.25;;;8.50;72.70;;;;;;4084764;29;20048;-76
2023/12/10 08:26:30;;;;;;;12.88;2.33;;;8.60;73.50;;;;;;4084174;29;20048;-78
2023/12/10 08:28:33;;;;;;;16.08;3.03;;;8.60;72.50;;;;;;4085374;29;20103;-76
2023/12/10 08:30:35;;;;;;;14.73;2.53;;;8.60;72.50;;;;;;4085004;29;20462;-75
2023/12/10 08:32:36;;;;;;;13.02;2.20;;;8.60;72.30;;;;;;4085546;29;20044;-75
2023/12/10 08:34:38;;;;;;;13.95;2.75;;;8.60;72.40;;;;;;4077013;29;20056;-77
2023/12/10 08:36:40;;;;;;;12.02;2.10;;;8.60;71.90;;;;;;4084083;29;20055;-75
2023/12/10 08:38:47;;;;;;;14.10;2.60;;;8.60;72.50;;;;;;4085020;29;20044;-76
2023/12/10 08:40:51;;;;;;;14.90;2.95;;;8.60;72.30;;;;;;4085139;29;20139;-75
2023/12/10 08:42:53;;;;;;;12.27;2.30;;;8.60;72.10;;;;;;4084807;29;20047;-78
2023/12/10 08:44:56;;;;;;;10.85;2.17;;;8.60;72.00;;;;;;4084475;29;20051;-78
2023/12/10 08:46:58;;;;;;;15.55;2.45;;;8.70;72.00;;;;;;4078506;29;20055;-80
2023/12/10 08:49:00;;;;;;;15.48;2.88;;;8.70;72.20;;;;;;4084537;29;20513;-80
2023/12/10 08:51:03;;;;;;;11.27;2.00;;;8.70;71.90;;;;;;4084609;29;20051;-78
2023/12/10 08:53:05;;;;;;;13.20;2.42;;;8.80;72.00;;;;;;4084617;29;20079;-80
2023/12/10 08:55:08;;;;;;;14.48;2.70;;;8.80;71.80;;;;;;4084391;29;20051;-78
2023/12/10 08:57:10;;;;;;;15.10;3.13;;;8.80;71.70;;;;;;4083670;29;20056;-78
2023/12/10 08:59:11;;;;;;;13.40;2.80;;;8.80;72.00;;;;;;4084953;29;20405;-81
2023/12/10 09:01:16;;;;;;;9.88;2.38;;;8.80;71.70;;;;;;4084520;29;20400;-79
2023/12/10 09:03:18;;;;;;;11.50;2.25;;;8.80;71.70;;;;;;4083984;29;20055;-81
2023/12/10 09:05:20;;;;;;;11.93;2.47;;;8.90;71.80;;;;;;4084440;29;20043;-78
2023/12/10 09:07:22;;;;;;;13.10;2.20;;;8.90;71.60;;;;;;4084485;29;20138;-79
2023/12/10 09:09:23;;;;;;;16.65;2.80;;;8.90;71.60;;;;;;4084486;29;20127;-78
2023/12/10 09:11:26;;;;;;;10.10;2.30;;;8.90;71.70;;;;;;4087294;29;20048;-77
2023/12/10 09:13:27;;;;;;;9.82;2.13;;;8.80;71.90;;;;;;4087313;29;20956;-78
2023/12/10 09:15:29;;;;;;;14.40;2.97;;;8.80;72.00;;;;;;4095265;29;20048;-77
2023/12/10 09:17:32;;;;;;;13.13;2.28;;;8.80;72.00;;;;;;4098548;28;20552;-78
2023/12/10 09:19:35;;;;;;;14.40;2.65;;;8.90;72.20;;;;;;4080729;29;20047;-78
2023/12/10 09:21:37;;;;;;;11.02;2.13;;;8.90;72.10;;;;;;4071980;29;20205;-77
2023/12/10 09:23:38;;;;;;;14.10;2.72;;;8.90;72.10;;;;;;4081675;29;20047;-79
2023/12/10 09:25:39;;;;;;;15.95;2.50;;;8.90;72.10;;;;;;4082067;29;20048;-80
2023/12/10 09:27:41;;;;;;;13.00;2.50;;;8.90;71.80;;;;;;4084049;29;20099;-80
2023/12/10 09:29:45;;;;;;;13.25;2.42;;;8.90;72.00;;;;;;4084211;29;20122;-80
2023/12/10 09:31:46;;;;;;;11.13;2.60;;;8.90;72.00;;;;;;4084156;29;20126;-78
2023/12/10 09:33:50;;;;;;;14.45;2.42;;;8.90;71.90;;;;;;4083750;29;20410;-80
2023/12/10 09:35:52;;;;;;;12.25;2.78;;;8.90;71.70;;;;;;4082931;29;20526;-77
2023/12/10 09:37:54;;;;;;;9.82;2.20;;;8.90;71.60;;;;;;4083741;29;20091;-78
2023/12/10 09:39:56;;;;;;;9.60;2.03;;;9.00;71.60;;;;;;4083742;29;20051;-77
2023/12/10 09:41:58;;;;;;;13.25;2.20;;;9.00;71.40;;;;;;4080574;29;20216;-78
2023/12/10 09:43:59;;;;;;;14.40;2.42;;;9.00;71.00;;;;;;4084464;29;20051;-78
2023/12/10 09:46:03;;;;;;;11.45;2.15;;;9.00;71.40;;;;;;4083937;29;20051;-80
2023/12/10 09:48:05;;;;;;;12.25;2.17;;;9.00;71.30;;;;;;4084006;29;20044;-78
2023/12/10 09:50:09;;;;;;;12.52;2.30;;;9.00;71.20;;;;;;4083454;29;20051;-77
2023/12/10 09:52:12;;;;;;;9.23;2.08;;;9.00;71.40;;;;;;4083900;29;20461;-80
2023/12/10 09:54:14;;;;;;;10.45;2.15;;;9.00;71.10;;;;;;4084182;29;20417;-78
2023/12/10 09:56:16;;;;;;;12.68;2.35;;;9.10;71.20;;;;;;4080557;29;20048;-78
2023/12/10 09:58:17;;;;;;;12.25;2.22;;;9.10;71.60;;;;;;4083844;29;20449;-79
2023/12/10 10:00:19;;;;;;;9.25;1.92;;;9.10;71.40;;;;;;4085944;29;20106;-81
2023/12/10 10:02:21;;;;;;;12.55;2.35;;;9.20;71.20;;;;;;4087450;29;20128;-79
2023/12/10 10:04:22;;;;;;;17.65;6.15;;;9.20;71.30;;;;;;4087107;29;20051;-76
2023/12/10 10:06:26;;;;;;;10.60;1.90;;;9.20;71.10;;;;;;4086460;29;20106;-80
2023/12/10 10:08:26;;;;;;;9.02;2.30;;;9.20;71.40;;;;;;4086687;29;20047;-80
2023/12/10 10:10:29;;;;;;;12.25;2.30;;;9.20;70.60;;;;;;4087386;29;20112;-78
2023/12/10 10:12:33;;;;;;;8.32;2.10;;;9.20;70.90;;;;;;4087751;29;20139;-78
2023/12/10 10:14:35;;;;;;;10.40;2.15;;;9.30;70.80;;;;;;4087285;29;20431;-79
2023/12/10 10:16:37;;;;;;;8.73;1.90;;;9.20;70.70;;;;;;4087405;29;20047;-78
2023/12/10 10:18:41;;;;;;;12.90;2.28;;;9.20;71.00;;;;;;4086873;29;20047;-79
2023/12/10 10:20:43;;;;;;;12.77;1.80;;;9.30;70.90;;;;;;4087339;29;20138;-78
2023/12/10 10:22:47;;;;;;;9.40;1.95;;;9.30;70.90;;;;;;4087006;29;20051;-78
2023/12/10 10:24:52;;;;;;;9.02;2.00;;;9.30;71.10;;;;;;4085203;29;20126;-77
2023/12/10 10:26:54;;;;;;;13.18;2.75;;;9.30;71.20;;;;;;4087189;29;20115;-78
2023/12/10 10:28:55;;;;;;;11.38;2.17;;;9.20;71.50;;;;;;4086235;29;20142;-79
2023/12/10 10:30:58;;;;;;;14.05;2.10;;;9.30;71.50;;;;;;4086410;29;20047;-76
2023/12/10 10:33:00;;;;;;;8.65;2.40;;;9.30;71.30;;;;;;4086954;29;20098;-78
2023/12/10 10:35:04;;;;;;;10.15;2.10;;;9.30;71.10;;;;;;4085645;29;20118;-80
2023/12/10 10:37:06;;;;;;;14.98;3.42;;;9.30;71.00;;;;;;4083123;29;20082;-80
2023/12/10 10:39:09;;;;;;;9.05;2.83;;;9.40;70.90;;;;;;4076449;29;20442;-79
2023/12/10 10:41:12;;;;;;;10.88;2.35;;;9.40;71.20;;;;;;4086619;29;20079;-79
2023/12/10 10:43:12;;;;;;;10.25;2.28;;;9.40;71.30;;;;;;4086843;29;20450;-77
2023/12/10 10:45:14;;;;;;;14.07;2.03;;;9.40;71.20;;;;;;4086541;29;20102;-78
2023/12/10 10:47:18;;;;;;;10.45;2.13;;;9.40;71.60;;;;;;4080114;29;20747;-78
2023/12/10 10:49:20;;;;;;;10.57;2.10;;;9.50;71.30;;;;;;4073345;29;20044;-81
2023/12/10 10:51:26;;;;;;;12.27;2.70;;;9.50;71.10;;;;;;4083763;29;20051;-77
2023/12/10 10:53:29;;;;;;;12.90;2.25;;;9.60;70.90;;;;;;4084523;29;20062;-78
2023/12/10 10:55:33;;;;;;;9.13;1.92;;;9.60;70.60;;;;;;4084246;29;20115;-78
2023/12/10 10:57:39;;;;;;;9.20;1.88;;;9.60;70.30;;;;;;4082246;29;20119;-77
2023/12/10 10:59:41;;;;;;;9.75;1.98;;;9.70;70.50;;;;;;4076113;29;20123;-77
2023/12/10 11:01:44;;;;;;;11.57;2.17;;;9.80;70.10;;;;;;4084363;29;20103;-86
2023/12/10 11:03:46;;;;;;;11.50;2.03;;;9.80;69.70;;;;;;4084426;29;20508;-79
2023/12/10 11:05:48;;;;;;;12.05;2.10;;;9.90;69.90;;;;;;4082922;29;20095;-78
2023/12/10 11:07:51;;;;;;;10.98;1.85;;;10.00;69.70;;;;;;4084131;29;20545;-79
2023/12/10 11:09:59;;;;;;;10.75;2.55;;;10.00;69.30;;;;;;4084749;29;20050;-80
2023/12/10 11:12:02;;;;;;;9.13;2.63;;;10.10;68.70;;;;;;4084200;29;20506;-80
2023/12/10 11:14:04;;;;;;;11.18;3.15;;;10.10;68.20;;;;;;4083909;29;20051;-79
2023/12/10 11:16:08;;;;;;;8.35;1.88;;;10.00;68.40;;;;;;4081735;29;20085;-80
2023/12/10 11:18:11;;;;;;;12.20;2.53;;;10.00;68.20;;;;;;4069465;29;20052;-79
2023/12/10 11:20:30;;;;;;;11.48;2.42;;;10.10;68.50;;;;;;4080860;29;20051;-77
2023/12/10 11:22:32;;;;;;;12.98;1.95;;;10.00;68.90;;;;;;4083983;29;20048;-79
2023/12/10 11:24:33;;;;;;;10.15;2.03;;;10.00;68.80;;;;;;4083416;29;20047;-77
2023/12/10 11:26:36;;;;;;;11.75;2.53;;;10.00;68.80;;;;;;4083340;29;20055;-77
2023/12/10 11:28:39;;;;;;;12.70;2.28;;;10.00;68.60;;;;;;4084485;29;20091;-77
2023/12/10 11:30:42;;;;;;;14.70;2.50;;;10.00;68.90;;;;;;4083992;29;20095;-77
2023/12/10 11:32:44;;;;;;;10.93;2.20;;;10.00;68.90;;;;;;4083769;29;20063;-79
2023/12/10 11:34:45;;;;;;;13.35;1.98;;;10.00;69.10;;;;;;4075811;29;20095;-77
2023/12/10 11:36:49;;;;;;;9.38;1.90;;;9.90;68.50;;;;;;4078994;29;20111;-75
2023/12/10 11:38:51;;;;;;;14.15;2.30;;;9.90;69.00;;;;;;4083129;29;20100;-79
2023/12/10 11:40:53;;;;;;;11.93;2.20;;;9.80;69.20;;;;;;4085102;29;20047;-78
2023/12/10 11:42:54;;;;;;;9.32;2.28;;;9.80;68.80;;;;;;4083700;29;20062;-78
2023/12/10 11:44:57;;;;;;;17.73;4.90;;;9.80;69.20;;;;;;4083442;29;20106;-76
2023/12/10 11:47:03;;;;;;;12.20;2.67;;;9.80;68.90;;;;;;4083222;29;20485;-78
2023/12/10 11:49:07;;;;;;;13.77;2.20;;;9.90;69.00;;;;;;4084022;29;20139;-76
2023/12/10 11:51:08;;;;;;;10.85;2.17;;;9.90;69.30;;;;;;4095972;29;20052;-78
2023/12/10 11:53:10;;;;;;;9.40;2.78;;;9.90;68.70;;;;;;4083501;29;20052;-80
2023/12/10 11:55:12;;;;;;;9.73;2.10;;;9.90;68.50;;;;;;4083036;29;20048;-79
2023/12/10 11:57:14;;;;;;;13.82;2.45;;;9.90;68.10;;;;;;4076303;29;20103;-76
2023/12/10 11:59:17;;;;;;;9.15;2.03;;;9.90;68.00;;;;;;4070555;29;20055;-79
2023/12/10 12:01:21;;;;;;;8.25;2.20;;;9.90;67.30;;;;;;4082886;29;20561;-76
2023/12/10 12:03:24;;;;;;;11.75;2.25;;;9.90;67.70;;;;;;4083398;29;20386;-78
2023/12/10 12:05:26;;;;;;;12.15;2.03;;;9.90;67.50;;;;;;4082889;29;20124;-77
2023/12/10 12:07:28;;;;;;;12.68;2.47;;;9.90;67.30;;;;;;4083166;29;20051;-77
2023/12/10 12:09:30;;;;;;;14.80;2.33;;;9.90;67.20;;;;;;4082807;29;20053;-78
2023/12/10 12:11:33;;;;;;;8.98;2.00;;;10.00;66.90;;;;;;4082845;29;20044;-77
2023/12/10 12:13:35;;;;;;;10.35;1.92;;;10.00;66.90;;;;;;4082258;29;20107;-77
2023/12/10 12:15:36;;;;;;;11.32;2.00;;;10.00;66.90;;;;;;4075354;29;20127;-78
2023/12/10 12:17:41;;;;;;;7.28;1.80;;;10.10;66.90;;;;;;4080667;29;20453;-80
2023/12/10 12:19:44;;;;;;;12.00;2.53;;;10.10;66.70;;;;;;4083886;29;20070;-82
2023/12/10 12:21:46;;;;;;;10.82;2.40;;;10.90;65.10;;;;;;4082866;29;20044;-79
2023/12/10 12:23:48;;;;;;;14.85;3.65;;;10.90;63.60;;;;;;4083090;29;20047;-82
2023/12/10 12:25:50;;;;;;;10.18;4.20;;;10.70;63.40;;;;;;4082571;29;20554;-81
2023/12/10 12:27:51;;;;;;;11.02;2.17;;;10.60;63.90;;;;;;4083483;29;20059;-82
2023/12/10 12:29:53;;;;;;;11.40;1.92;;;10.40;64.80;;;;;;4083453;29;20469;-80
2023/12/10 12:31:55;;;;;;;11.40;2.35;;;10.30;65.30;;;;;;4083776;29;20130;-82
2023/12/10 12:33:58;;;;;;;7.22;1.60;;;10.20;65.60;;;;;;4083566;29;20084;-79
2023/12/10 12:36:00;;;;;;;8.88;1.85;;;10.10;66.00;;;;;;4080646;29;20056;-81
2023/12/10 12:38:02;;;;;;;15.05;2.65;;;10.10;65.70;;;;;;4070861;29;20114;-81
2023/12/10 12:40:06;;;;;;;10.57;2.40;;;10.10;65.80;;;;;;4067654;29;20059;-81
2023/12/10 12:42:08;;;;;;;9.90;2.03;;;10.10;65.70;;;;;;4068214;29;20577;-81
2023/12/10 12:44:11;;;;;;;10.02;3.20;;;10.10;65.50;;;;;;4067957;29;20084;-80
2023/12/10 12:46:14;;;;;;;8.63;2.15;;;10.10;65.70;;;;;;4070996;29;20135;-82
2023/12/10 12:48:16;;;;;;;10.80;2.05;;;10.10;65.70;;;;;;4081777;29;20106;-82
2023/12/10 12:50:20;;;;;;;9.35;1.98;;;10.10;66.00;;;;;;4082922;29;20060;-81
2023/12/10 12:52:21;;;;;;;10.50;2.30;;;10.10;65.20;;;;;;4083456;29;20466;-81
2023/12/10 12:54:23;;;;;;;12.88;2.15;;;10.10;65.30;;;;;;4083110;29;20059;-81
2023/12/10 12:56:25;;;;;;;9.00;1.63;;;10.10;65.10;;;;;;4082445;29;20115;-80
2023/12/10 12:58:27;;;;;;;8.25;1.90;;;10.10;64.60;;;;;;4083587;29;20079;-82
2023/12/10 13:00:29;;;;;;;8.38;1.90;;;10.10;64.60;;;;;;4082886;29;20409;-79
2023/12/10 13:02:31;;;;;;;12.13;2.30;;;10.10;64.90;;;;;;4083424;29;20446;-80
2023/12/10 13:04:33;;;;;;;8.98;1.85;;;10.10;64.60;;;;;;4081680;29;20090;-81
2023/12/10 13:06:36;;;;;;;10.02;2.17;;;10.20;64.70;;;;;;4083423;29;20114;-81
2023/12/10 13:08:37;;;;;;;8.90;2.45;;;10.20;64.70;;;;;;4081110;29;20106;-80
2023/12/10 13:10:39;;;;;;;13.68;2.25;;;10.20;64.50;;;;;;4081974;29;20481;-79
2023/12/10 13:12:41;;;;;;;9.88;2.30;;;10.20;64.00;;;;;;4082970;29;20059;-81
2023/12/10 13:14:45;;;;;;;7.45;1.58;;;10.20;63.80;;;;;;4086725;29;20529;-80
2023/12/10 13:16:47;;;;;;;9.70;1.80;;;10.20;63.80;;;;;;4082315;29;20073;-81
2023/12/10 13:18:48;;;;;;;8.45;1.95;;;10.10;63.70;;;;;;4082751;29;20052;-81
2023/12/10 13:20:50;;;;;;;9.07;2.40;;;10.20;64.20;;;;;;4083020;29;20107;-81
2023/12/10 13:22:53;;;;;;;7.18;1.70;;;10.20;63.90;;;;;;4085980;29;20075;-82
2023/12/10 13:24:55;;;;;;;9.02;2.30;;;10.20;63.70;;;;;;4083239;29;20150;-82
2023/12/10 13:26:57;;;;;;;7.68;1.50;;;10.20;63.80;;;;;;4085104;29;20051;-83
2023/12/10 13:28:57;;;;;;;11.50;2.45;;;10.20;63.80;;;;;;4077107;29;20060;-83
2023/12/10 13:30:59;;;;;;;12.70;1.88;;;10.20;63.80;;;;;;4068866;29;20048;-83
2023/12/10 13:33:02;;;;;;;13.20;1.80;;;10.10;63.80;;;;;;4070526;29;20115;-82
2023/12/10 13:35:07;;;;;;;6.93;1.63;;;10.10;64.00;;;;;;4087566;29;20055;-84
2023/12/10 13:37:09;;;;;;;9.60;1.98;;;10.20;64.20;;;;;;4088768;29;20052;-83
2023/12/10 13:39:12;;;;;;;9.02;1.50;;;10.10;63.90;;;;;;4086674;29;20052;-84
2023/12/10 13:41:14;;;;;;;8.98;2.10;;;10.10;64.00;;;;;;4084816;29;20507;-82
2023/12/10 13:43:16;;;;;;;11.30;1.70;;;10.20;64.20;;;;;;4086663;29;20110;-81
2023/12/10 13:45:18;;;;;;;14.88;2.05;;;10.10;63.90;;;;;;4086549;29;20142;-83
2023/12/10 13:47:19;;;;;;;10.15;1.90;;;10.10;64.20;;;;;;4087012;29;20059;-81
2023/12/10 13:49:21;;;;;;;10.07;2.20;;;10.20;64.30;;;;;;4071277;29;20066;-81
2023/12/10 13:51:23;;;;;;;10.15;1.95;;;10.20;64.40;;;;;;4094775;29;20047;-81
2023/12/10 13:53:25;;;;;;;13.10;2.15;;;10.10;64.40;;;;;;4106076;29;20051;-82
2023/12/10 13:55:29;;;;;;;7.70;1.65;;;10.10;64.40;;;;;;4105475;28;20538;-81
2023/12/10 13:57:33;;;;;;;12.48;2.33;;;10.10;64.40;;;;;;4102812;28;20138;-83
2023/12/10 13:59:35;;;;;;;11.35;1.90;;;10.10;64.40;;;;;;4103575;29;20055;-82
2023/12/10 14:01:35;;;;;;;10.45;1.95;;;10.10;64.40;;;;;;4100345;29;20087;-84
2023/12/10 14:03:37;;;;;;;12.48;1.90;;;10.10;64.50;;;;;;4105815;28;20047;-83
2023/12/10 14:05:39;;;;;;;9.57;1.92;;;10.10;64.60;;;;;;4102748;29;20051;-84
2023/12/10 14:07:42;;;;;;;10.93;2.20;;;10.10;64.40;;;;;;4098783;29;20416;-83
2023/12/10 14:09:44;;;;;;;9.43;2.47;;;10.10;64.30;;;;;;4071722;29;20052;-83
2023/12/10 14:11:47;;;;;;;11.52;2.15;;;10.10;64.60;;;;;;4085109;29;20051;-83
2023/12/10 14:13:49;;;;;;;10.55;1.88;;;10.10;64.40;;;;;;4070725;29;20052;-81
2023/12/10 14:15:51;;;;;;;10.20;2.03;;;10.10;64.20;;;;;;4070166;29;20557;-81
2023/12/10 14:17:53;;;;;;;9.55;1.98;;;10.10;64.20;;;;;;4070406;29;20052;-81
2023/12/10 14:19:55;;;;;;;9.20;1.98;;;10.10;64.40;;;;;;4071352;29;20060;-80
2023/12/10 14:21:57;;;;;;;12.15;2.45;;;10.10;64.30;;;;;;4094757;29;20047;-82
2023/12/10 14:23:58;;;;;;;8.48;2.05;;;10.10;64.30;;;;;;4099638;29;20323;-80
2023/12/10 14:26:00;;;;;;;8.80;2.15;;;10.10;64.30;;;;;;4100487;29;20043;-80
2023/12/10 14:28:04;;;;;;;12.55;2.03;;;10.10;64.50;;;;;;4093060;29;20055;-80
2023/12/10 14:30:07;;;;;;;9.55;1.98;;;10.10;64.70;;;;;;4093183;29;20051;-81
2023/12/10 14:32:09;;;;;;;10.98;2.13;;;10.10;64.80;;;;;;4086539;29;20052;-81
2023/12/10 14:34:11;;;;;;;11.05;3.03;;;10.10;65.00;;;;;;4086011;29;20052;-81
2023/12/10 14:36:13;;;;;;;14.57;5.28;;;10.00;65.00;;;;;;4093626;29;20055;-78
2023/12/10 14:38:15;;;;;;;17.52;6.55;;;10.00;64.90;;;;;;4109855;29;20094;-79
2023/12/10 14:40:16;;;;;;;12.32;2.88;;;10.10;65.20;;;;;;4109622;29;20196;-78
2023/12/10 14:42:19;;;;;;;11.38;2.42;;;10.10;65.20;;;;;;4089786;29;20527;-77
2023/12/10 14:44:22;;;;;;;9.27;2.45;;;10.10;65.20;;;;;;4085128;29;20055;-78
2023/12/10 14:46:24;;;;;;;9.90;2.40;;;10.00;65.30;;;;;;4085025;29;20054;-78
2023/12/10 14:48:27;;;;;;;9.93;2.10;;;10.00;65.30;;;;;;4084929;29;20107;-79
2023/12/10 14:50:28;;;;;;;11.50;2.78;;;10.00;65.30;;;;;;4084931;29;20048;-78
2023/12/10 14:52:30;;;;;;;13.00;2.20;;;10.00;65.50;;;;;;4086131;29;20051;-78
2023/12/10 14:54:32;;;;;;;11.25;2.22;;;10.00;65.80;;;;;;4085450;29;20055;-78
2023/12/10 14:56:35;;;;;;;15.82;2.95;;;10.00;65.70;;;;;;4084798;29;20154;-78
2023/12/10 14:58:37;;;;;;;12.23;2.13;;;9.90;65.60;;;;;;4084883;29;20052;-80
2023/12/10 15:00:40;;;;;;;14.38;2.50;;;10.00;66.00;;;;;;4083682;29;20044;-79
2023/12/10 15:02:42;;;;;;;10.45;2.35;;;10.00;66.00;;;;;;4084632;29;20557;-79
2023/12/10 15:04:44;;;;;;;13.65;2.22;;;9.90;66.10;;;;;;4082005;29;20052;-79
2023/12/10 15:06:47;;;;;;;12.43;2.50;;;9.90;66.30;;;;;;4084536;29;20052;-80
2023/12/10 15:08:49;;;;;;;10.68;2.28;;;9.90;66.20;;;;;;4084824;29;20051;-78
2023/12/10 15:10:51;;;;;;;10.98;2.45;;;9.90;66.40;;;;;;4083924;29;20127;-81
2023/12/10 15:12:53;;;;;;;10.43;2.38;;;9.80;66.40;;;;;;4084342;29;20146;-80
2023/12/10 15:14:53;;;;;;;10.25;2.30;;;9.80;66.70;;;;;;4084865;29;20043;-78
2023/12/10 15:16:58;;;;;;;9.40;2.30;;;9.80;66.80;;;;;;4083032;29;20051;-79
2023/12/10 15:18:59;;;;;;;14.50;2.78;;;9.80;66.90;;;;;;4084453;29;20465;-78
2023/12/10 15:21:01;;;;;;;12.85;2.60;;;9.80;66.80;;;;;;4083498;29;20051;-78
2023/12/10 15:23:03;;;;;;;10.65;2.50;;;9.80;67.00;;;;;;4090710;29;20051;-80
2023/12/10 15:25:05;;;;;;;13.05;2.65;;;9.80;66.90;;;;;;4086608;29;20075;-81
2023/12/10 15:27:08;;;;;;;11.70;2.25;;;9.80;67.20;;;;;;4082964;29;20055;-82
2023/12/10 15:29:10;;;;;;;13.77;2.45;;;9.80;67.20;;;;;;4072650;29;20052;-82
2023/12/10 15:31:13;;;;;;;12.93;2.53;;;9.80;67.40;;;;;;4072511;29;20627;-82
2023/12/10 15:33:16;;;;;;;11.10;2.45;;;9.80;67.20;;;;;;4081890;29;20048;-84
2023/12/10 15:35:18;;;;;;;11.27;2.38;;;9.80;66.90;;;;;;4083832;29;20083;-83
2023/12/10 15:37:20;;;;;;;12.60;2.65;;;9.80;66.90;;;;;;4085838;29;20048;-79
2023/12/10 15:39:22;;;;;;;12.73;2.90;;;9.80;66.80;;;;;;4083478;29;20058;-80
2023/12/10 15:41:24;;;;;;;10.70;2.45;;;9.80;66.90;;;;;;4084566;29;20052;-80
2023/12/10 15:43:26;;;;;;;15.00;2.60;;;9.80;67.10;;;;;;4086232;29;20080;-79
2023/12/10 15:45:28;;;;;;;9.65;2.22;;;9.70;66.90;;;;;;4087688;29;20059;-81
2023/12/10 15:47:30;;;;;;;12.98;2.85;;;9.70;66.90;;;;;;4085891;29;20056;-81
2023/12/10 15:49:33;;;;;;;15.98;2.58;;;9.70;67.10;;;;;;4088424;29;20130;-81
2023/12/10 15:51:34;;;;;;;12.50;2.60;;;9.70;67.20;;;;;;4084574;29;20428;-84
2023/12/10 15:53:36;;;;;;;12.52;2.40;;;9.70;67.20;;;;;;4084773;29;20091;-82
2023/12/10 15:55:37;;;;;;;16.67;2.60;;;9.70;67.20;;;;;;4083969;29;20067;-82
2023/12/10 15:57:38;;;;;;;13.25;3.63;;;9.70;67.20;;;;;;4083572;29;20047;-83
2023/12/10 15:59:42;;;;;;;18.42;6.00;;;9.70;67.20;;;;;;4084045;29;20055;-79
2023/12/10 16:01:44;;;;;;;13.77;4.40;;;9.70;67.10;;;;;;4083851;29;20095;-80
2023/12/10 16:03:45;;;;;;;11.57;3.13;;;9.70;67.20;;;;;;4083656;29;20544;-82
2023/12/10 16:05:49;;;;;;;9.25;2.20;;;9.70;67.20;;;;;;4082261;29;20115;-83
2023/12/10 16:07:51;;;;;;;12.80;2.20;;;9.70;67.30;;;;;;4083143;29;20420;-81
2023/12/10 16:09:53;;;;;;;10.75;2.63;;;9.60;67.20;;;;;;4083663;29;20051;-81
2023/12/10 16:11:55;;;;;;;12.15;2.50;;;9.60;67.30;;;;;;4083847;29;20056;-82
2023/12/10 16:13:57;;;;;;;11.77;2.42;;;9.60;67.40;;;;;;4084473;29;20051;-81
2023/12/10 16:15:59;;;;;;;9.90;2.67;;;9.60;67.00;;;;;;4085662;29;20056;-81
2023/12/10 16:18:01;;;;;;;14.82;3.10;;;9.60;66.80;;;;;;4084042;29;20481;-82
2023/12/10 16:20:04;;;;;;;14.02;2.88;;;9.60;66.80;;;;;;4081772;29;20044;-81
2023/12/10 16:22:07;;;;;;;11.10;2.55;;;9.60;66.70;;;;;;4084585;29;20079;-84
2023/12/10 16:24:09;;;;;;;9.90;2.25;;;9.60;66.60;;;;;;4083872;29;20060;-85
2023/12/10 16:26:11;;;;;;;10.20;1.92;;;9.60;66.50;;;;;;4081666;29;20075;-85
2023/12/10 16:28:12;;;;;;;11.98;2.65;;;9.60;66.50;;;;;;4083576;29;20051;-79
2023/12/10 16:30:14;;;;;;;10.13;2.20;;;9.60;66.70;;;;;;4082509;29;20090;-79
2023/12/10 16:32:17;;;;;;;12.52;2.60;;;9.60;66.60;;;;;;4083060;29;20052;-79
2023/12/10 16:34:19;;;;;;;12.40;2.20;;;9.60;66.60;;;;;;4083207;29;20095;-79
2023/12/10 16:36:21;;;;;;;14.10;2.63;;;9.60;67.10;;;;;;4083011;29;20056;-79